createdAt,value
2022-10-10T00:01:23.765Z,14.77
2022-10-10T00:03:54.800Z,14.73
2022-10-10T00:06:21.622Z,14.71
2022-10-10T00:08:48.541Z,14.70
2022-10-10T00:11:16.973Z,14.68
2022-10-10T00:13:47.059Z,14.63
2022-10-10T00:16:13.978Z,14.60
2022-10-10T00:18:41.733Z,14.57
2022-10-10T00:21:08.970Z,14.57
2022-10-10T00:23:36.023Z,14.55
2022-10-10T00:26:08.295Z,14.54
2022-10-10T00:28:38.368Z,14.53
2022-10-10T00:31:08.435Z,14.51
2022-10-10T00:33:36.095Z,14.49
2022-10-10T00:36:02.780Z,14.48
2022-10-10T00:38:29.534Z,14.44
2022-10-10T00:40:56.511Z,14.41
2022-10-10T00:43:25.445Z,14.40
2022-10-10T00:45:52.362Z,14.39
2022-10-10T00:48:29.492Z,14.38
2022-10-10T00:51:04.476Z,14.35
2022-10-10T00:53:34.660Z,14.32
2022-10-10T00:56:02.594Z,14.30
2022-10-10T00:58:29.545Z,14.27
2022-10-10T01:00:56.704Z,14.24
2022-10-10T01:03:23.975Z,14.23
2022-10-10T01:05:52.004Z,14.22
2022-10-10T01:08:19.966Z,14.21
2022-10-10T01:10:59.060Z,14.19
2022-10-10T01:13:58.247Z,14.16
2022-10-10T01:16:42.822Z,14.14
2022-10-10T01:19:21.360Z,14.12
2022-10-10T01:21:55.757Z,14.11
2022-10-10T01:24:50.199Z,14.09
2022-10-10T01:27:32.174Z,14.09
2022-10-10T01:30:21.602Z,14.05
2022-10-10T01:33:13.483Z,14.04
2022-10-10T01:35:55.649Z,14.04
2022-10-10T01:38:36.221Z,14.02
2022-10-10T01:41:09.746Z,14.00
2022-10-10T01:43:37.385Z,14.02
2022-10-10T01:46:12.806Z,14.01
2022-10-10T01:48:39.676Z,13.98
2022-10-10T01:51:36.118Z,14.01
2022-10-10T01:54:23.971Z,13.96
2022-10-10T01:57:18.206Z,13.93
2022-10-10T02:00:04.358Z,13.92
2022-10-10T02:02:45.977Z,13.89
2022-10-10T02:05:24.393Z,13.88
2022-10-10T02:07:53.829Z,13.86
2022-10-10T02:10:25.843Z,13.85
2022-10-10T02:12:54.725Z,13.83
2022-10-10T02:15:24.331Z,13.82
2022-10-10T02:17:52.340Z,13.80
2022-10-10T02:20:23.887Z,13.77
2022-10-10T02:22:51.816Z,13.74
2022-10-10T02:25:28.589Z,13.70
2022-10-10T02:28:06.984Z,13.68
2022-10-10T02:30:40.286Z,13.64
2022-10-10T02:33:08.347Z,13.60
2022-10-10T02:35:40.227Z,13.58
2022-10-10T02:38:09.343Z,13.54
2022-10-10T02:40:36.700Z,13.51
2022-10-10T02:43:06.270Z,13.48
2022-10-10T02:45:40.462Z,13.47
2022-10-10T02:48:07.588Z,13.47
2022-10-10T02:50:34.394Z,13.45
2022-10-10T02:53:00.882Z,13.41
2022-10-10T02:55:27.741Z,13.38
2022-10-10T02:57:54.257Z,13.33
2022-10-10T03:00:21.050Z,13.31
2022-10-10T03:02:47.646Z,13.30
2022-10-10T03:05:14.574Z,13.31
2022-10-10T03:07:41.074Z,13.29
2022-10-10T03:10:08.013Z,13.28
2022-10-10T03:12:35.461Z,13.25
2022-10-10T03:15:02.252Z,13.23
2022-10-10T03:17:28.791Z,13.21
2022-10-10T03:19:55.332Z,13.18
2022-10-10T03:22:21.950Z,13.17
2022-10-10T03:24:52.251Z,13.17
2022-10-10T03:27:18.717Z,13.17
2022-10-10T03:29:45.230Z,13.17
2022-10-10T03:32:11.786Z,13.16
2022-10-10T03:34:38.246Z,13.17
2022-10-10T03:37:04.830Z,13.16
2022-10-10T03:39:31.490Z,13.15
2022-10-10T03:41:58.214Z,13.13
2022-10-10T03:44:26.292Z,13.09
2022-10-10T03:46:52.799Z,13.08
2022-10-10T03:49:19.389Z,13.07
2022-10-10T03:51:45.912Z,13.04
2022-10-10T03:54:13.333Z,13.00
2022-10-10T03:56:39.813Z,12.98
2022-10-10T03:59:06.497Z,12.99
2022-10-10T04:01:33.632Z,12.99
2022-10-10T04:04:05.009Z,12.97
2022-10-10T04:06:31.487Z,12.96
2022-10-10T04:08:57.977Z,12.92
2022-10-10T04:11:24.527Z,12.89
2022-10-10T04:13:55.307Z,12.86
2022-10-10T04:16:22.028Z,12.87
2022-10-10T04:18:48.542Z,12.87
2022-10-10T04:21:15.123Z,12.86
2022-10-10T04:23:41.679Z,12.83
2022-10-10T04:26:08.567Z,12.81
2022-10-10T04:28:35.172Z,12.81
2022-10-10T04:31:01.720Z,12.80
2022-10-10T04:33:28.254Z,12.77
2022-10-10T04:35:54.742Z,12.75
2022-10-10T04:38:22.703Z,12.72
2022-10-10T04:40:50.687Z,12.73
2022-10-10T04:43:18.453Z,12.74
2022-10-10T04:45:46.577Z,12.71
2022-10-10T04:48:13.195Z,12.70
2022-10-10T04:50:40.293Z,12.68
2022-10-10T04:53:06.803Z,12.66
2022-10-10T04:55:37.565Z,12.66
2022-10-10T04:58:04.106Z,12.66
2022-10-10T05:00:30.613Z,12.63
2022-10-10T05:02:57.281Z,12.61
2022-10-10T05:05:28.111Z,12.58
2022-10-10T05:07:55.666Z,12.57
2022-10-10T05:10:23.017Z,12.58
2022-10-10T05:12:49.849Z,12.58
2022-10-10T05:15:17.855Z,12.58
2022-10-10T05:17:45.079Z,12.56
2022-10-10T05:20:11.645Z,12.55
2022-10-10T05:22:38.093Z,12.49
2022-10-10T05:25:04.993Z,12.47
2022-10-10T05:27:31.469Z,12.47
2022-10-10T05:29:57.934Z,12.47
2022-10-10T05:32:24.481Z,12.47
2022-10-10T05:34:52.200Z,12.48
2022-10-10T05:37:18.662Z,12.47
2022-10-10T05:39:45.269Z,12.45
2022-10-10T05:42:13.917Z,12.46
2022-10-10T05:44:42.303Z,12.46
2022-10-10T05:47:08.775Z,12.45
2022-10-10T05:49:35.324Z,12.45
2022-10-10T05:52:02.194Z,12.46
2022-10-10T05:54:32.011Z,12.46
2022-10-10T05:56:58.525Z,12.44
2022-10-10T05:59:25.237Z,12.39
2022-10-10T06:01:51.898Z,12.37
2022-10-10T06:04:23.415Z,12.35
2022-10-10T06:06:50.770Z,12.33
2022-10-10T06:09:17.400Z,12.34
2022-10-10T06:11:43.867Z,12.34
2022-10-10T06:14:11.416Z,12.35
2022-10-10T06:16:39.525Z,12.35
2022-10-10T06:19:06.282Z,12.34
2022-10-10T06:21:32.772Z,12.35
2022-10-10T06:24:01.182Z,12.35
2022-10-10T06:26:27.710Z,12.35
2022-10-10T06:28:54.256Z,12.35
2022-10-10T06:31:20.928Z,12.38
2022-10-10T06:33:53.128Z,12.41
2022-10-10T06:36:19.624Z,12.45
2022-10-10T06:38:46.221Z,12.47
2022-10-10T06:41:13.323Z,12.48
2022-10-10T06:43:41.364Z,12.52
2022-10-10T06:46:10.748Z,12.57
2022-10-10T06:48:37.717Z,12.60
2022-10-10T06:51:07.291Z,12.64
2022-10-10T06:53:34.591Z,12.69
2022-10-10T06:56:01.696Z,12.74
2022-10-10T06:58:29.269Z,12.78
2022-10-10T07:01:00.306Z,12.82
2022-10-10T07:03:28.972Z,12.87
2022-10-10T07:06:01.258Z,12.94
2022-10-10T07:08:28.623Z,13.04
2022-10-10T07:10:55.189Z,13.15
2022-10-10T07:13:21.673Z,13.26
2022-10-10T07:15:49.474Z,13.40
2022-10-10T07:18:18.630Z,13.56
2022-10-10T07:20:45.140Z,13.77
2022-10-10T07:23:11.612Z,13.99
2022-10-10T07:25:40.493Z,14.21
2022-10-10T07:28:08.366Z,14.39
2022-10-10T07:30:48.169Z,14.55
2022-10-10T07:33:15.615Z,14.70
2022-10-10T07:35:42.702Z,14.79
2022-10-10T07:38:11.550Z,14.87
2022-10-10T07:40:40.434Z,14.97
2022-10-10T07:43:07.050Z,15.03
2022-10-10T07:45:36.494Z,15.09
2022-10-10T07:48:03.672Z,15.16
2022-10-10T07:50:30.361Z,15.21
2022-10-10T07:52:56.826Z,15.31
2022-10-10T07:55:23.563Z,15.42
2022-10-10T07:57:53.428Z,15.57
2022-10-10T08:00:20.578Z,15.77
2022-10-10T08:02:47.078Z,16.00
2022-10-10T08:05:15.152Z,16.23
2022-10-10T08:07:41.667Z,16.42
2022-10-10T08:10:09.833Z,16.61
2022-10-10T08:12:36.299Z,16.79
2022-10-10T08:15:07.297Z,16.98
2022-10-10T08:17:33.921Z,17.15
2022-10-10T08:20:00.474Z,17.33
2022-10-10T08:22:26.989Z,17.56
2022-10-10T08:24:55.214Z,17.78
2022-10-10T08:27:22.036Z,17.96
2022-10-10T08:29:48.883Z,18.13
2022-10-10T08:32:18.483Z,18.27
2022-10-10T08:34:48.084Z,18.40
2022-10-10T08:37:14.553Z,18.48
2022-10-10T08:39:41.010Z,18.59
2022-10-10T08:42:16.753Z,18.68
2022-10-10T08:44:43.681Z,18.79
2022-10-10T08:47:10.106Z,18.91
2022-10-10T08:49:36.586Z,19.03
2022-10-10T08:52:13.847Z,19.17
2022-10-10T08:54:42.640Z,19.33
2022-10-10T08:57:24.769Z,19.47
2022-10-10T08:59:55.699Z,19.65
2022-10-10T09:02:53.156Z,19.74
2022-10-10T09:05:38.335Z,19.78
2022-10-10T09:08:13.939Z,19.81
2022-10-10T09:10:56.881Z,19.84
2022-10-10T09:13:35.624Z,19.91
2022-10-10T09:16:36.760Z,19.98
2022-10-10T09:19:35.445Z,20.11
2022-10-10T09:22:11.230Z,20.23
2022-10-10T09:24:48.448Z,20.33
2022-10-10T09:27:22.415Z,20.43
2022-10-10T09:29:58.032Z,20.53
2022-10-10T09:32:30.866Z,20.62
2022-10-10T09:35:05.831Z,20.67
2022-10-10T09:37:53.431Z,20.72
2022-10-10T09:40:28.464Z,20.80
2022-10-10T09:42:56.345Z,20.85
2022-10-10T09:45:29.086Z,20.90
2022-10-10T09:47:56.160Z,20.97
2022-10-10T09:50:23.880Z,21.02
2022-10-10T09:52:52.138Z,21.07
2022-10-10T09:55:46.290Z,21.10
2022-10-10T09:58:35.446Z,21.16
2022-10-10T10:01:20.265Z,21.26
2022-10-10T10:04:27.090Z,21.34
2022-10-10T10:07:25.125Z,21.43
2022-10-10T10:09:54.688Z,21.50
2022-10-10T10:12:25.270Z,21.52
2022-10-10T10:15:00.475Z,21.58
2022-10-10T10:17:27.275Z,21.59
2022-10-10T10:19:54.046Z,21.67
2022-10-10T10:22:26.767Z,21.68
2022-10-10T10:24:54.454Z,21.67
2022-10-10T10:27:23.913Z,21.66
2022-10-10T10:29:53.138Z,21.64
2022-10-10T10:32:51.767Z,21.65
2022-10-10T10:35:30.254Z,21.70
2022-10-10T10:38:27.401Z,21.69
2022-10-10T10:41:17.198Z,21.74
2022-10-10T10:44:04.819Z,21.82
2022-10-10T10:46:38.703Z,21.86
2022-10-10T10:49:16.768Z,21.91
2022-10-10T10:51:53.393Z,21.96
2022-10-10T10:54:50.362Z,21.99
2022-10-10T10:58:00.005Z,22.00
2022-10-10T11:05:19.507Z,22.37
2022-10-10T11:06:59.959Z,22.58
2022-10-10T11:09:50.237Z,22.69
2022-10-10T11:12:54.569Z,22.78
2022-10-10T11:15:30.767Z,22.89
2022-10-10T11:18:15.894Z,22.93
2022-10-10T11:20:47.657Z,22.98
2022-10-10T11:23:24.364Z,22.98
2022-10-10T11:26:05.962Z,23.01
2022-10-10T11:28:49.421Z,23.03
2022-10-10T11:31:26.539Z,23.08
2022-10-10T11:34:11.155Z,23.13
2022-10-10T11:36:41.363Z,23.19
2022-10-10T11:39:22.599Z,23.25
2022-10-10T11:41:55.416Z,23.36
2022-10-10T11:44:42.886Z,23.50
2022-10-10T11:47:27.034Z,23.59
2022-10-10T11:50:27.832Z,23.67
2022-10-10T11:53:05.296Z,23.77
2022-10-10T11:55:53.358Z,23.86
2022-10-10T11:58:33.317Z,23.92
2022-10-10T12:01:06.929Z,24.00
2022-10-10T12:03:33.442Z,24.08
2022-10-10T12:06:20.456Z,24.13
2022-10-10T12:09:26.254Z,24.19
2022-10-10T12:12:07.725Z,24.31
2022-10-10T12:14:45.595Z,24.46
2022-10-10T12:17:21.859Z,24.58
2022-10-10T12:19:50.984Z,24.69
2022-10-10T12:22:28.554Z,24.78
2022-10-10T12:25:20.058Z,24.80
2022-10-10T12:28:21.363Z,24.81
2022-10-10T12:30:58.544Z,24.83
2022-10-10T12:33:31.372Z,24.82
2022-10-10T12:36:17.866Z,24.79
2022-10-10T12:39:10.374Z,24.78
2022-10-10T12:41:47.145Z,24.73
2022-10-10T12:44:14.857Z,24.69
2022-10-10T12:46:43.035Z,24.60
2022-10-10T12:49:23.700Z,24.55
2022-10-10T12:52:20.434Z,24.43
2022-10-10T12:54:47.965Z,24.34
2022-10-10T12:57:28.119Z,24.28
2022-10-10T12:59:57.671Z,24.22
2022-10-10T13:02:28.304Z,24.16
2022-10-10T13:05:00.697Z,24.10
2022-10-10T13:07:27.819Z,24.05
2022-10-10T13:10:03.321Z,23.99
2022-10-10T13:12:32.215Z,23.93
2022-10-10T13:15:01.793Z,23.85
2022-10-10T13:17:36.474Z,23.77
2022-10-10T13:20:05.383Z,23.74
2022-10-10T13:22:35.965Z,23.66
2022-10-10T13:25:11.345Z,23.58
2022-10-10T13:27:37.909Z,23.53
2022-10-10T13:30:05.385Z,23.45
2022-10-10T13:32:34.903Z,23.39
2022-10-10T13:35:13.026Z,23.34
2022-10-10T13:37:41.521Z,23.29
2022-10-10T13:40:14.837Z,23.25
2022-10-10T13:42:41.736Z,23.19
2022-10-10T13:45:30.816Z,23.13
2022-10-10T13:48:00.295Z,23.07
2022-10-10T13:50:28.688Z,22.99
2022-10-10T13:53:50.361Z,22.89
2022-10-10T13:56:26.781Z,22.88
2022-10-10T13:59:10.759Z,22.78
2022-10-10T14:01:48.716Z,22.67
2022-10-10T14:04:17.841Z,22.59
2022-10-10T14:07:12.091Z,22.54
2022-10-10T14:09:41.979Z,22.48
2022-10-10T14:12:45.314Z,22.36
2022-10-10T14:15:42.530Z,22.22
2022-10-10T14:18:24.270Z,22.12
2022-10-10T14:20:52.039Z,22.03
2022-10-10T14:23:19.064Z,21.96
2022-10-10T14:25:48.859Z,21.85
2022-10-10T14:28:24.005Z,21.77
2022-10-10T14:30:50.655Z,21.66
2022-10-10T14:33:19.521Z,21.54
2022-10-10T14:35:49.659Z,21.43
2022-10-10T14:38:16.466Z,21.37
2022-10-10T14:40:45.567Z,21.29
2022-10-10T14:43:12.339Z,21.23
2022-10-10T14:45:49.185Z,21.16
2022-10-10T14:48:15.648Z,21.10
2022-10-10T14:50:45.647Z,21.06
2022-10-10T14:53:13.237Z,21.04
2022-10-10T14:55:44.182Z,21.00
2022-10-10T14:58:28.876Z,20.94
2022-10-10T15:00:55.452Z,20.92
2022-10-10T15:03:22.036Z,20.87
2022-10-10T15:05:49.401Z,20.81
2022-10-10T15:08:18.280Z,20.72
2022-10-10T15:10:45.438Z,20.60
2022-10-10T15:13:12.432Z,20.51
2022-10-10T15:15:39.429Z,20.43
2022-10-10T15:18:15.422Z,20.33
2022-10-10T15:20:52.563Z,20.22
2022-10-10T15:23:19.157Z,20.09
2022-10-10T15:25:46.854Z,20.00
2022-10-10T15:28:13.545Z,19.93
2022-10-10T15:30:43.018Z,19.82
2022-10-10T15:33:09.794Z,19.70
2022-10-10T15:36:03.951Z,19.59
2022-10-10T15:38:24.722Z,19.44
2022-10-10T15:41:05.564Z,19.31
2022-10-10T15:43:41.353Z,19.25
2022-10-10T15:46:09.797Z,19.17
2022-10-10T15:48:36.313Z,19.11
2022-10-10T15:51:07.058Z,19.03
2022-10-10T15:53:33.626Z,18.95
2022-10-10T15:56:10.007Z,18.93
2022-10-10T15:58:37.953Z,18.89
2022-10-10T16:01:19.111Z,18.82
2022-10-10T16:03:48.474Z,18.78
2022-10-10T16:06:16.771Z,18.75
2022-10-10T16:08:44.104Z,18.74
2022-10-10T16:11:15.287Z,18.76
2022-10-10T16:13:42.842Z,18.79
2022-10-10T16:16:11.268Z,18.81
2022-10-10T16:18:40.460Z,18.81
2022-10-10T16:21:13.917Z,18.79
2022-10-10T16:23:40.448Z,18.76
2022-10-10T16:26:10.379Z,18.72
2022-10-10T16:28:36.970Z,18.68
2022-10-10T16:31:07.512Z,18.63
2022-10-10T16:33:36.403Z,18.59
2022-10-10T16:36:10.371Z,18.55
2022-10-10T16:38:37.331Z,18.53
2022-10-10T16:41:23.632Z,18.54
2022-10-10T16:43:58.584Z,18.56
2022-10-10T16:46:27.136Z,18.57
2022-10-10T16:48:57.535Z,18.56
2022-10-10T16:51:24.438Z,18.55
2022-10-10T16:54:01.625Z,18.57
2022-10-10T16:56:29.702Z,18.58
2022-10-10T16:58:59.092Z,18.59
2022-10-10T17:01:25.700Z,18.58
2022-10-10T17:03:54.335Z,18.56
2022-10-10T17:06:23.297Z,18.55
2022-10-10T17:08:52.109Z,18.57
2022-10-10T17:11:21.420Z,18.55
2022-10-10T17:13:51.707Z,18.54
2022-10-10T17:16:59.924Z,18.51
2022-10-10T17:19:08.762Z,18.49
2022-10-10T17:21:35.239Z,18.46
2022-10-10T17:24:06.016Z,18.45
2022-10-10T17:26:32.582Z,18.43
2022-10-10T17:28:59.762Z,18.40
2022-10-10T17:31:27.077Z,18.36
2022-10-10T17:34:02.743Z,18.32
2022-10-10T17:36:29.227Z,18.28
2022-10-10T17:38:56.263Z,18.23
2022-10-10T17:41:23.534Z,18.19
2022-10-10T17:43:53.990Z,18.13
2022-10-10T17:46:39.805Z,18.09
2022-10-10T17:49:09.226Z,18.02
2022-10-10T17:51:36.322Z,17.97
2022-10-10T17:54:07.512Z,17.90
2022-10-10T17:56:35.028Z,17.84
2022-10-10T17:59:02.316Z,17.76
2022-10-10T18:01:30.618Z,17.70
2022-10-10T18:03:59.544Z,17.64
2022-10-10T18:06:26.558Z,17.59
2022-10-10T18:08:53.872Z,17.53
2022-10-10T18:11:23.179Z,17.46
2022-10-10T18:13:53.354Z,17.40
2022-10-10T18:16:22.328Z,17.35
2022-10-10T18:18:51.916Z,17.30
2022-10-10T18:21:20.968Z,17.24
2022-10-10T18:23:52.206Z,17.20
2022-10-10T18:26:22.275Z,17.14
2022-10-10T18:28:49.782Z,17.10
2022-10-10T18:31:19.559Z,17.04
2022-10-10T18:33:49.939Z,17.01
2022-10-10T18:36:22.163Z,16.95
2022-10-10T18:38:49.202Z,16.91
2022-10-10T18:41:18.547Z,16.85
2022-10-10T18:43:53.422Z,16.81
2022-10-10T18:46:22.073Z,16.75
2022-10-10T18:48:53.555Z,16.70
2022-10-10T18:51:24.634Z,16.59
2022-10-10T18:54:07.761Z,16.49
2022-10-10T18:56:36.617Z,16.41
2022-10-10T18:59:06.000Z,16.32
2022-10-10T19:01:36.519Z,16.19
2022-10-10T19:04:08.890Z,16.04
2022-10-10T19:06:37.147Z,15.92
2022-10-10T19:09:05.943Z,15.76
2022-10-10T19:11:35.080Z,15.63
2022-10-10T19:14:08.011Z,15.50
2022-10-10T19:16:35.681Z,15.41
2022-10-10T19:19:03.195Z,15.36
2022-10-10T19:21:32.804Z,15.36
2022-10-10T19:24:06.566Z,15.32
2022-10-10T19:26:34.186Z,15.27
2022-10-10T19:29:06.617Z,15.23
2022-10-10T19:31:33.599Z,15.18
2022-10-10T19:34:01.739Z,15.11
2022-10-10T19:36:28.608Z,15.03
2022-10-10T19:38:55.923Z,14.90
2022-10-10T19:41:22.511Z,14.81
2022-10-10T19:44:14.161Z,14.73
2022-10-10T19:46:40.709Z,14.74
2022-10-10T19:49:07.269Z,14.70
2022-10-10T19:51:33.729Z,14.63
2022-10-10T19:54:01.853Z,14.56
2022-10-10T19:56:28.336Z,14.51
2022-10-10T19:58:56.818Z,14.47
2022-10-10T20:01:29.015Z,14.39
2022-10-10T20:03:58.666Z,14.32
2022-10-10T20:06:26.013Z,14.27
2022-10-10T20:08:52.758Z,14.23
2022-10-10T20:11:20.285Z,14.17
2022-10-10T20:13:53.098Z,14.11
2022-10-10T20:16:20.049Z,14.05
2022-10-10T20:18:46.885Z,14.04
2022-10-10T20:21:17.615Z,14.02
2022-10-10T20:23:58.890Z,14.02
2022-10-10T20:26:26.677Z,13.99
2022-10-10T20:28:54.418Z,13.97
2022-10-10T20:31:34.887Z,13.91
2022-10-10T20:34:06.923Z,13.87
2022-10-10T20:36:34.497Z,13.82
2022-10-10T20:39:11.329Z,13.76
2022-10-10T20:41:39.083Z,13.74
2022-10-10T20:44:13.168Z,13.74
2022-10-10T20:46:41.882Z,13.78
2022-10-10T20:49:18.959Z,13.78
2022-10-10T20:51:49.550Z,13.73
2022-10-10T20:54:22.948Z,13.68
2022-10-10T20:56:49.863Z,13.65
2022-10-10T20:59:21.094Z,13.65
2022-10-10T21:01:47.799Z,13.66
2022-10-10T21:04:17.169Z,13.68
2022-10-10T21:06:43.744Z,13.68
2022-10-10T21:09:13.151Z,13.67
2022-10-10T21:11:39.921Z,13.70
2022-10-10T21:14:11.168Z,13.71
2022-10-10T21:16:40.647Z,13.71
2022-10-10T21:19:12.359Z,13.72
2022-10-10T21:21:39.223Z,13.75
2022-10-10T21:24:13.340Z,13.74
2022-10-10T21:26:41.838Z,13.74
2022-10-10T21:29:08.688Z,13.71
2022-10-10T21:31:38.016Z,13.66
2022-10-10T21:34:13.331Z,13.62
2022-10-10T21:36:40.301Z,13.56
2022-10-10T21:39:07.246Z,13.53
2022-10-10T21:41:34.026Z,13.51
2022-10-10T21:44:03.950Z,13.49
2022-10-10T21:46:36.256Z,13.45
2022-10-10T21:49:05.811Z,13.42
2022-10-10T21:51:35.545Z,13.41
2022-10-10T21:54:07.451Z,13.40
2022-10-10T21:56:34.248Z,13.40
2022-10-10T21:59:01.568Z,13.42
2022-10-10T22:01:29.381Z,13.42
2022-10-10T22:03:56.627Z,13.42
2022-10-10T22:06:24.387Z,13.43
2022-10-10T22:08:52.477Z,13.41
2022-10-10T22:11:23.237Z,13.39
2022-10-10T22:13:53.576Z,13.35
2022-10-10T22:16:20.939Z,13.29
2022-10-10T22:18:47.867Z,13.21
2022-10-10T22:21:16.128Z,13.17
2022-10-10T22:23:44.218Z,13.13
2022-10-10T22:26:13.915Z,13.10
2022-10-10T22:28:40.640Z,13.09
2022-10-10T22:31:12.358Z,13.06
2022-10-10T22:33:39.208Z,13.04
2022-10-10T22:36:06.887Z,13.03
2022-10-10T22:38:37.967Z,13.02
2022-10-10T22:41:04.552Z,13.01
2022-10-10T22:43:31.081Z,12.99
2022-10-10T22:45:58.656Z,12.96
2022-10-10T22:48:25.329Z,12.92
2022-10-10T22:51:07.657Z,12.88
2022-10-10T22:53:34.145Z,12.85
2022-10-10T22:56:03.366Z,12.81
2022-10-10T22:58:31.818Z,12.79
2022-10-10T23:01:06.766Z,12.77
2022-10-10T23:03:33.412Z,12.78
2022-10-10T23:06:00.675Z,12.78
2022-10-10T23:08:27.217Z,12.75
2022-10-10T23:10:53.770Z,12.72
2022-10-10T23:13:20.360Z,12.70
2022-10-10T23:15:47.950Z,12.65
2022-10-10T23:18:14.471Z,12.60
2022-10-10T23:20:41.102Z,12.55
2022-10-10T23:23:08.694Z,12.52
2022-10-10T23:25:40.542Z,12.51
2022-10-10T23:28:07.228Z,12.50
2022-10-10T23:30:33.737Z,12.48
2022-10-10T23:33:00.210Z,12.48
2022-10-10T23:35:30.816Z,12.46
2022-10-10T23:37:57.552Z,12.44
2022-10-10T23:40:24.235Z,12.40
2022-10-10T23:42:50.696Z,12.35
2022-10-10T23:45:18.556Z,12.31
2022-10-10T23:47:45.600Z,12.26
2022-10-10T23:50:12.175Z,12.25
2022-10-10T23:52:39.568Z,12.24
2022-10-10T23:55:10.135Z,12.21
2022-10-10T23:57:36.578Z,12.19
